createdAt,value
2023-04-16T00:01:56.116Z,8.57
2023-04-16T00:04:23.164Z,8.70
2023-04-16T00:06:50.045Z,7.35
2023-04-16T00:09:16.763Z,7.30
2023-04-16T00:11:43.614Z,7.13
2023-04-16T00:14:10.331Z,6.93
2023-04-16T00:16:38.437Z,7.80
2023-04-16T00:19:05.465Z,6.65
2023-04-16T00:21:32.432Z,6.47
2023-04-16T00:23:59.120Z,5.22
2023-04-16T00:26:26.033Z,5.60
2023-04-16T00:28:53.576Z,6.07
2023-04-16T00:31:30.615Z,6.13
2023-04-16T00:33:58.265Z,6.03
2023-04-16T00:36:25.872Z,6.30
2023-04-16T00:38:53.213Z,5.07
2023-04-16T00:41:19.941Z,5.10
2023-04-16T00:43:46.845Z,5.57
2023-04-16T00:46:13.830Z,6.32
2023-04-16T00:48:41.310Z,5.88
2023-04-16T00:51:08.705Z,4.93
2023-04-16T00:53:35.588Z,5.32
2023-04-16T00:56:03.469Z,6.68
2023-04-16T00:58:30.700Z,7.35
2023-04-16T01:00:57.460Z,7.13
2023-04-16T01:03:31.213Z,6.28
2023-04-16T01:05:58.132Z,6.88
2023-04-16T01:08:24.805Z,6.03
2023-04-16T01:10:51.515Z,7.22
2023-04-16T01:13:18.185Z,7.32
2023-04-16T01:15:44.939Z,8.57
2023-04-16T01:18:19.394Z,7.28
2023-04-16T01:20:47.542Z,7.75
2023-04-16T01:23:14.530Z,8.02
2023-04-16T01:25:41.298Z,7.22
2023-04-16T01:28:08.138Z,8.07
2023-04-16T01:30:34.879Z,8.48
2023-04-16T01:33:13.596Z,8.32
2023-04-16T01:35:41.274Z,9.75
2023-04-16T01:38:09.094Z,10.48
2023-04-16T01:40:36.524Z,9.38
2023-04-16T01:43:03.432Z,8.80
2023-04-16T01:45:32.139Z,8.63
2023-04-16T01:47:58.856Z,8.10
2023-04-16T01:50:25.583Z,8.63
2023-04-16T01:52:52.347Z,7.90
2023-04-16T01:55:19.114Z,8.20
2023-04-16T01:57:45.885Z,8.70
2023-04-16T02:00:14.127Z,7.82
2023-04-16T02:02:47.032Z,7.65
2023-04-16T02:05:20.148Z,8.80
2023-04-16T02:07:46.938Z,8.23
2023-04-16T02:10:13.665Z,8.93
2023-04-16T02:12:40.780Z,9.18
2023-04-16T02:15:07.973Z,9.18
2023-04-16T02:17:35.493Z,9.70
2023-04-16T02:20:10.821Z,9.50
2023-04-16T02:22:57.742Z,10.00
2023-04-16T02:25:25.116Z,10.27
2023-04-16T02:27:55.171Z,12.00
2023-04-16T02:30:40.760Z,10.90
2023-04-16T02:33:09.376Z,11.13
2023-04-16T02:35:38.394Z,11.35
2023-04-16T02:38:06.299Z,11.65
2023-04-16T02:40:35.192Z,12.05
2023-04-16T02:43:02.244Z,12.45
2023-04-16T02:45:29.071Z,13.45
2023-04-16T02:47:55.849Z,12.07
2023-04-16T02:50:22.623Z,12.43
2023-04-16T02:52:49.399Z,12.60
2023-04-16T02:55:16.188Z,11.77
2023-04-16T02:57:43.087Z,13.45
2023-04-16T03:00:10.400Z,13.60
2023-04-16T03:02:37.375Z,13.43
2023-04-16T03:05:04.532Z,13.35
2023-04-16T03:07:31.316Z,15.05
2023-04-16T03:09:58.004Z,14.88
2023-04-16T03:12:24.758Z,14.23
2023-04-16T03:14:52.653Z,15.38
2023-04-16T03:17:19.449Z,15.32
2023-04-16T03:19:46.241Z,15.70
2023-04-16T03:22:12.990Z,17.38
2023-04-16T03:24:39.708Z,17.13
2023-04-16T03:27:07.189Z,15.93
2023-04-16T03:29:37.930Z,14.95
2023-04-16T03:32:05.891Z,16.15
2023-04-16T03:34:33.051Z,17.83
2023-04-16T03:37:00.746Z,17.20
2023-04-16T03:39:27.657Z,17.15
2023-04-16T03:41:54.470Z,16.55
2023-04-16T03:44:21.393Z,17.10
2023-04-16T03:46:48.338Z,18.25
2023-04-16T03:49:15.333Z,15.75
2023-04-16T03:51:42.467Z,17.73
2023-04-16T03:54:09.274Z,17.27
2023-04-16T03:56:37.380Z,16.45
2023-04-16T03:59:04.128Z,17.77
2023-04-16T04:01:30.952Z,17.23
2023-04-16T04:06:24.725Z,17.15
2023-04-16T04:08:51.624Z,17.42
2023-04-16T04:11:18.429Z,16.08
2023-04-16T04:13:45.697Z,15.43
2023-04-16T04:16:13.172Z,16.40
2023-04-16T04:18:39.940Z,15.40
2023-04-16T04:21:07.939Z,15.38
2023-04-16T04:23:35.983Z,15.48
2023-04-16T04:26:04.042Z,16.38
2023-04-16T04:28:33.259Z,16.73
2023-04-16T04:31:00.542Z,16.90
2023-04-16T04:33:28.796Z,16.42
2023-04-16T04:35:55.744Z,17.00
2023-04-16T04:38:25.184Z,17.45
2023-04-16T04:40:52.908Z,16.55
2023-04-16T04:43:21.028Z,15.98
2023-04-16T04:45:49.080Z,16.42
2023-04-16T04:48:16.780Z,16.45
2023-04-16T04:50:45.031Z,15.65
2023-04-16T04:53:12.031Z,14.98
2023-04-16T04:55:39.595Z,16.23
2023-04-16T04:58:06.944Z,15.45
2023-04-16T05:00:36.881Z,15.63
2023-04-16T05:03:10.626Z,15.80
2023-04-16T05:05:38.152Z,15.90
2023-04-16T05:08:04.858Z,14.45
2023-04-16T05:10:31.586Z,15.35
2023-04-16T05:12:58.303Z,14.88
2023-04-16T05:15:25.004Z,14.30
2023-04-16T05:17:51.735Z,16.00
2023-04-16T05:20:18.615Z,16.40
2023-04-16T05:22:45.359Z,15.85
2023-04-16T05:25:12.096Z,14.55
2023-04-16T05:27:38.844Z,13.38
2023-04-16T05:30:06.281Z,14.23
2023-04-16T05:32:33.110Z,13.38
2023-04-16T05:34:59.771Z,13.13
2023-04-16T05:37:26.469Z,14.55
2023-04-16T05:39:53.290Z,13.10
2023-04-16T05:42:19.989Z,13.73
2023-04-16T05:44:46.738Z,14.02
2023-04-16T05:47:13.468Z,13.73
2023-04-16T05:49:40.477Z,13.63
2023-04-16T05:52:07.435Z,12.68
2023-04-16T05:54:34.332Z,11.80
2023-04-16T05:57:01.975Z,12.32
2023-04-16T05:59:29.286Z,14.15
2023-04-16T06:01:56.134Z,13.02
2023-04-16T06:04:23.446Z,12.77
2023-04-16T06:06:50.286Z,13.45
2023-04-16T06:09:18.176Z,13.02
2023-04-16T06:11:45.198Z,12.75
2023-04-16T06:14:11.974Z,12.48
2023-04-16T06:16:38.635Z,13.52
2023-04-16T06:19:05.583Z,12.57
2023-04-16T06:21:32.519Z,12.10
2023-04-16T06:23:59.326Z,11.80
2023-04-16T06:26:26.622Z,12.18
2023-04-16T06:28:53.348Z,12.18
2023-04-16T06:31:20.601Z,11.55
2023-04-16T06:33:47.358Z,11.73
2023-04-16T06:36:14.116Z,11.40
2023-04-16T06:38:40.824Z,10.95
2023-04-16T06:41:07.527Z,12.60
2023-04-16T06:43:34.377Z,12.10
2023-04-16T06:46:01.083Z,11.40
2023-04-16T06:48:28.046Z,10.48
2023-04-16T06:50:55.939Z,11.48
2023-04-16T06:53:23.437Z,11.00
2023-04-16T06:55:50.197Z,10.45
2023-04-16T06:58:16.915Z,10.98
2023-04-16T07:00:43.681Z,10.68
2023-04-16T07:03:10.700Z,10.43
2023-04-16T07:05:37.606Z,9.68
2023-04-16T07:08:04.286Z,10.80
2023-04-16T07:10:31.392Z,10.27
2023-04-16T07:13:01.622Z,9.75
2023-04-16T07:15:28.551Z,12.23
2023-04-16T07:17:55.637Z,9.80
2023-04-16T07:20:22.444Z,11.40
2023-04-16T07:22:49.346Z,10.82
2023-04-16T07:25:16.092Z,11.40
2023-04-16T07:27:43.099Z,10.85
2023-04-16T07:30:09.913Z,11.52
2023-04-16T07:32:36.682Z,11.75
2023-04-16T07:35:03.860Z,11.10
2023-04-16T07:37:30.872Z,11.43
2023-04-16T07:39:57.771Z,11.30
2023-04-16T07:42:24.451Z,11.68
2023-04-16T07:44:51.134Z,11.80
2023-04-16T07:47:17.852Z,11.50
2023-04-16T07:49:44.532Z,12.52
2023-04-16T07:52:11.195Z,10.32
2023-04-16T07:54:37.873Z,12.25
2023-04-16T07:57:04.567Z,11.60
2023-04-16T07:59:31.257Z,11.35
2023-04-16T08:01:58.069Z,11.82
2023-04-16T08:04:25.774Z,11.70
2023-04-16T08:06:53.350Z,11.65
2023-04-16T08:09:21.719Z,11.27
2023-04-16T08:11:49.937Z,11.68
2023-04-16T08:14:17.611Z,11.65
2023-04-16T08:16:44.415Z,11.63
2023-04-16T08:19:11.293Z,10.95
2023-04-16T08:21:38.331Z,11.88
2023-04-16T08:24:05.072Z,12.70
2023-04-16T08:26:31.886Z,11.40
2023-04-16T08:28:58.885Z,11.35
2023-04-16T08:31:25.702Z,11.10
2023-04-16T08:33:52.654Z,12.45
2023-04-16T08:36:19.472Z,11.38
2023-04-16T08:38:46.178Z,11.60
2023-04-16T08:41:13.418Z,10.65
2023-04-16T08:43:44.736Z,11.80
2023-04-16T08:46:12.133Z,12.52
2023-04-16T08:48:38.903Z,10.57
2023-04-16T08:51:09.512Z,10.45
2023-04-16T08:53:49.323Z,11.77
2023-04-16T08:56:18.006Z,11.48
2023-04-16T08:58:46.202Z,11.40
2023-04-16T09:01:12.916Z,10.50
2023-04-16T09:03:40.045Z,12.05
2023-04-16T09:06:07.637Z,10.70
2023-04-16T09:08:35.889Z,9.93
2023-04-16T09:11:02.644Z,10.38
2023-04-16T09:13:33.999Z,10.63
2023-04-16T09:16:01.065Z,10.32
2023-04-16T09:18:28.516Z,10.70
2023-04-16T09:20:56.352Z,9.55
2023-04-16T09:23:23.394Z,10.35
2023-04-16T09:25:50.040Z,9.77
2023-04-16T09:28:39.108Z,8.30
2023-04-16T09:31:09.343Z,7.43
2023-04-16T09:33:38.248Z,9.05
2023-04-16T09:36:05.907Z,8.32
2023-04-16T09:38:53.407Z,7.75
2023-04-16T09:41:29.276Z,7.63
2023-04-16T09:43:57.598Z,7.45
2023-04-16T09:46:29.266Z,6.88
2023-04-16T09:48:56.264Z,7.28
2023-04-16T09:51:22.983Z,7.30
2023-04-16T09:53:52.748Z,7.63
2023-04-16T09:56:23.761Z,6.68
2023-04-16T09:58:50.586Z,6.43
2023-04-16T10:01:18.116Z,5.55
2023-04-16T10:03:49.681Z,6.05
2023-04-16T10:06:21.601Z,5.88
2023-04-16T10:08:52.930Z,5.25
2023-04-16T10:11:20.814Z,6.60
2023-04-16T10:13:47.479Z,5.47
2023-04-16T10:16:14.271Z,5.55
2023-04-16T10:18:42.738Z,5.43
2023-04-16T10:21:12.121Z,5.15
2023-04-16T10:23:43.182Z,5.07
2023-04-16T10:26:10.518Z,4.45
2023-04-16T10:28:37.916Z,3.88
2023-04-16T10:31:07.698Z,4.18
2023-04-16T10:33:40.196Z,4.53
2023-04-16T10:36:26.639Z,3.78
2023-04-16T10:38:58.098Z,3.58
2023-04-16T10:41:26.668Z,3.92
2023-04-16T10:43:53.402Z,3.72
2023-04-16T10:46:23.101Z,3.35
2023-04-16T10:48:55.038Z,3.65
2023-04-16T10:51:32.888Z,3.38
2023-04-16T10:54:03.987Z,4.28
2023-04-16T10:56:32.999Z,3.88
2023-04-16T10:58:59.776Z,3.17
2023-04-16T11:01:34.593Z,3.78
2023-04-16T11:04:22.806Z,3.80
2023-04-16T11:07:11.462Z,4.05
2023-04-16T11:09:45.905Z,4.07
2023-04-16T11:12:14.725Z,4.25
2023-04-16T11:14:42.119Z,4.53
2023-04-16T11:17:09.500Z,3.83
2023-04-16T11:19:36.993Z,3.67
2023-04-16T11:22:03.956Z,4.45
2023-04-16T11:24:31.509Z,4.25
2023-04-16T11:26:58.324Z,5.00
2023-04-16T11:29:25.230Z,4.90
2023-04-16T11:31:52.513Z,4.18
2023-04-16T11:34:20.134Z,4.65
2023-04-16T11:36:48.720Z,4.55
2023-04-16T11:39:15.917Z,5.00
2023-04-16T11:41:44.117Z,4.85
2023-04-16T11:44:21.812Z,5.22
2023-04-16T11:46:49.643Z,5.22
2023-04-16T11:49:19.466Z,5.60
2023-04-16T11:51:47.144Z,5.43
2023-04-16T11:54:22.428Z,5.60
2023-04-16T11:56:51.184Z,6.53
2023-04-16T11:59:19.841Z,6.05
2023-04-16T12:01:58.087Z,5.90
2023-04-16T12:04:26.822Z,6.93
2023-04-16T12:07:12.959Z,6.32
2023-04-16T12:09:41.520Z,5.80
2023-04-16T12:12:33.351Z,6.25
2023-04-16T12:15:03.604Z,6.43
2023-04-16T12:17:35.289Z,6.90
2023-04-16T12:20:07.065Z,6.10
2023-04-16T12:22:36.627Z,6.43
2023-04-16T12:25:12.168Z,7.40
2023-04-16T12:27:55.795Z,6.80
2023-04-16T12:30:24.228Z,6.80
2023-04-16T12:32:52.590Z,6.75
2023-04-16T12:35:33.436Z,6.68
2023-04-16T12:38:00.603Z,8.13
2023-04-16T12:40:27.581Z,8.15
2023-04-16T12:42:54.829Z,7.40
2023-04-16T12:45:22.229Z,8.23
2023-04-16T12:47:50.378Z,7.75
2023-04-16T12:50:17.647Z,8.95
2023-04-16T12:52:44.607Z,7.85
2023-04-16T12:55:11.905Z,8.10
2023-04-16T12:57:38.724Z,7.53
2023-04-16T13:00:06.667Z,7.95
2023-04-16T13:02:34.267Z,7.40
2023-04-16T13:05:01.532Z,9.00
2023-04-16T13:07:29.001Z,8.60
2023-04-16T13:12:22.512Z,8.55
2023-04-16T13:14:49.177Z,7.72
2023-04-16T13:17:16.100Z,9.32
2023-04-16T13:19:42.785Z,9.65
2023-04-16T13:22:09.587Z,9.68
2023-04-16T13:24:36.546Z,9.05
2023-04-16T13:27:03.256Z,9.45
2023-04-16T13:29:30.104Z,9.60
2023-04-16T13:31:57.681Z,10.43
2023-04-16T13:34:46.300Z,10.77
2023-04-16T13:37:30.986Z,9.73
2023-04-16T13:39:57.839Z,10.82
2023-04-16T13:42:25.060Z,11.55
2023-04-16T13:44:54.175Z,11.80
2023-04-16T13:47:21.062Z,10.82
2023-04-16T13:49:48.050Z,10.77
2023-04-16T13:52:14.941Z,10.05
2023-04-16T13:54:41.607Z,10.88
2023-04-16T13:57:43.378Z,10.75
2023-04-16T14:00:13.248Z,10.43
2023-04-16T14:02:45.967Z,10.07
2023-04-16T14:05:12.835Z,10.52
2023-04-16T14:07:39.592Z,11.02
2023-04-16T14:10:06.968Z,10.38
2023-04-16T14:12:33.780Z,9.65
2023-04-16T14:15:02.254Z,10.13
2023-04-16T14:17:28.991Z,10.20
2023-04-16T14:19:55.686Z,10.27
2023-04-16T14:22:22.531Z,11.32
2023-04-16T14:24:49.310Z,12.32
2023-04-16T14:27:16.997Z,10.98
2023-04-16T14:29:44.755Z,11.50
2023-04-16T14:32:11.793Z,11.25
2023-04-16T14:34:38.651Z,11.82
2023-04-16T14:37:05.840Z,11.27
2023-04-16T14:39:39.640Z,12.18
2023-04-16T14:42:06.578Z,13.13
2023-04-16T14:44:33.457Z,11.35
2023-04-16T14:47:00.211Z,11.93
2023-04-16T14:49:26.936Z,12.38
2023-04-16T14:51:53.942Z,12.23
2023-04-16T14:54:20.941Z,12.50
2023-04-16T14:56:47.751Z,13.50
2023-04-16T14:59:14.492Z,12.20
2023-04-16T15:01:42.672Z,12.68
2023-04-16T15:04:09.734Z,11.43
2023-04-16T15:06:36.562Z,13.40
2023-04-16T15:09:03.964Z,11.95
2023-04-16T15:11:30.911Z,12.50
2023-04-16T15:13:57.670Z,12.23
2023-04-16T15:16:24.681Z,12.27
2023-04-16T15:18:51.602Z,12.57
2023-04-16T15:21:18.369Z,11.82
2023-04-16T15:23:45.177Z,12.45
2023-04-16T15:26:11.963Z,11.75
2023-04-16T15:28:38.705Z,12.07
2023-04-16T15:31:05.644Z,11.85
2023-04-16T15:33:32.417Z,13.45
2023-04-16T15:35:59.180Z,11.68
2023-04-16T15:38:26.138Z,13.05
2023-04-16T15:40:52.875Z,11.98
2023-04-16T15:43:19.750Z,13.35
2023-04-16T15:45:46.400Z,12.32
2023-04-16T15:48:13.118Z,14.82
2023-04-16T15:50:39.908Z,13.35
2023-04-16T15:53:07.254Z,14.65
2023-04-16T15:55:34.864Z,14.20
2023-04-16T15:58:01.605Z,14.38
2023-04-16T16:00:28.514Z,13.35
2023-04-16T16:02:55.383Z,15.60
2023-04-16T16:05:22.242Z,15.10
2023-04-16T16:07:49.050Z,14.05
2023-04-16T16:10:15.854Z,14.75
2023-04-16T16:12:42.670Z,15.60
2023-04-16T16:15:10.887Z,15.07
2023-04-16T16:17:37.594Z,15.25
2023-04-16T16:20:04.458Z,14.43
2023-04-16T16:22:31.147Z,15.57
2023-04-16T16:24:58.007Z,15.15
2023-04-16T16:27:24.652Z,14.75
2023-04-16T16:29:51.463Z,15.38
2023-04-16T16:32:18.254Z,15.68
2023-04-16T16:34:45.063Z,15.18
2023-04-16T16:37:12.405Z,15.52
2023-04-16T16:39:40.415Z,14.30
2023-04-16T16:42:09.056Z,15.30
2023-04-16T16:44:37.413Z,16.73
2023-04-16T16:47:04.227Z,16.17
2023-04-16T16:49:30.928Z,15.25
2023-04-16T16:51:57.923Z,14.50
2023-04-16T16:54:24.606Z,13.70
2023-04-16T16:56:51.609Z,15.30
2023-04-16T16:59:18.292Z,14.55
2023-04-16T17:01:44.944Z,14.25
2023-04-16T17:04:11.770Z,12.30
2023-04-16T17:06:39.103Z,14.77
2023-04-16T17:09:07.073Z,12.75
2023-04-16T17:11:33.827Z,13.45
2023-04-16T17:14:00.718Z,13.13
2023-04-16T17:16:27.511Z,13.45
2023-04-16T17:18:54.223Z,13.00
2023-04-16T17:21:20.988Z,12.65
2023-04-16T17:23:47.683Z,12.70
2023-04-16T17:26:14.402Z,12.82
2023-04-16T17:28:41.160Z,12.90
2023-04-16T17:31:08.523Z,10.93
2023-04-16T17:33:35.682Z,12.10
2023-04-16T17:36:04.514Z,12.77
2023-04-16T17:38:31.526Z,12.38
2023-04-16T17:40:58.210Z,13.52
2023-04-16T17:43:25.332Z,12.25
2023-04-16T17:45:52.017Z,11.82
2023-04-16T17:48:18.705Z,14.73
2023-04-16T17:50:45.395Z,12.93
2023-04-16T17:53:12.282Z,12.85
2023-04-16T17:55:42.570Z,12.73
2023-04-16T17:58:09.255Z,11.40
2023-04-16T18:00:35.899Z,12.73
2023-04-16T18:03:02.737Z,12.32
2023-04-16T18:05:30.487Z,12.43
2023-04-16T18:07:57.967Z,11.27
2023-04-16T18:10:24.736Z,11.55
2023-04-16T18:12:51.777Z,11.80
2023-04-16T18:15:18.595Z,10.40
2023-04-16T18:17:45.394Z,9.93
2023-04-16T18:20:12.496Z,10.65
2023-04-16T18:22:39.189Z,11.48
2023-04-16T18:25:06.632Z,11.35
2023-04-16T18:27:33.399Z,12.27
2023-04-16T18:30:00.262Z,11.88
2023-04-16T18:32:30.873Z,11.00
2023-04-16T18:34:58.035Z,11.70
2023-04-16T18:37:24.818Z,12.23
2023-04-16T18:39:51.539Z,11.25
2023-04-16T18:42:18.536Z,11.43
2023-04-16T18:44:51.600Z,11.60
2023-04-16T18:47:18.419Z,13.88
2023-04-16T18:49:45.172Z,11.30
2023-04-16T18:52:12.238Z,11.57
2023-04-16T18:54:40.900Z,13.05
2023-04-16T18:57:07.935Z,12.23
2023-04-16T18:59:34.635Z,12.55
2023-04-16T19:02:01.547Z,12.45
2023-04-16T19:04:28.311Z,11.77
2023-04-16T19:06:55.750Z,12.30
2023-04-16T19:09:22.698Z,11.60
2023-04-16T19:11:50.510Z,14.35
2023-04-16T19:14:17.344Z,12.80
2023-04-16T19:16:44.210Z,13.38
2023-04-16T19:19:11.170Z,12.80
2023-04-16T19:21:38.041Z,13.38
2023-04-16T19:24:04.995Z,11.65
2023-04-16T19:26:31.792Z,13.38
2023-04-16T19:28:58.717Z,12.18
2023-04-16T19:31:26.210Z,13.07
2023-04-16T19:33:52.962Z,13.50
2023-04-16T19:36:19.616Z,13.77
2023-04-16T19:38:46.319Z,13.65
2023-04-16T19:41:13.016Z,12.52
2023-04-16T19:43:39.732Z,15.35
2023-04-16T19:46:07.549Z,13.65
2023-04-16T19:48:34.560Z,13.50
2023-04-16T19:51:03.258Z,14.55
2023-04-16T19:53:30.077Z,13.07
2023-04-16T19:55:56.753Z,12.38
2023-04-16T19:58:24.168Z,12.93
2023-04-16T20:00:51.098Z,13.38
2023-04-16T20:03:17.946Z,13.70
2023-04-16T20:05:48.183Z,12.45
2023-04-16T20:08:14.855Z,11.98
2023-04-16T20:10:41.610Z,13.27
2023-04-16T20:13:11.960Z,13.13
2023-04-16T20:15:38.650Z,12.27
2023-04-16T20:18:06.419Z,12.55
2023-04-16T20:20:35.972Z,13.38
2023-04-16T20:23:02.714Z,13.02
2023-04-16T20:25:29.662Z,12.45
2023-04-16T20:27:56.362Z,14.77
2023-04-16T20:30:28.737Z,11.38
2023-04-16T20:32:56.225Z,12.55
2023-04-16T20:35:23.047Z,12.25
2023-04-16T20:37:49.715Z,12.55
2023-04-16T20:40:16.478Z,14.82
2023-04-16T20:42:46.035Z,12.43
2023-04-16T20:45:12.802Z,13.20
2023-04-16T20:47:39.608Z,12.68
2023-04-16T20:50:07.243Z,12.65
2023-04-16T20:52:36.649Z,12.07
2023-04-16T20:55:03.592Z,12.30
2023-04-16T20:57:31.890Z,12.45
2023-04-16T20:59:58.720Z,13.55
2023-04-16T21:02:25.959Z,12.20
2023-04-16T21:04:52.809Z,12.05
2023-04-16T21:07:19.595Z,12.45
2023-04-16T21:09:46.471Z,12.38
2023-04-16T21:12:13.189Z,12.30
2023-04-16T21:14:40.349Z,12.73
2023-04-16T21:17:07.086Z,11.50
2023-04-16T21:19:33.733Z,12.50
2023-04-16T21:22:02.384Z,13.13
2023-04-16T21:24:29.108Z,12.95
2023-04-16T21:26:56.784Z,13.00
2023-04-16T21:29:23.535Z,12.93
2023-04-16T21:31:50.325Z,11.88
2023-04-16T21:34:17.080Z,11.70
2023-04-16T21:36:44.015Z,11.90
2023-04-16T21:39:11.422Z,13.80
2023-04-16T21:41:38.395Z,12.88
2023-04-16T21:44:05.197Z,11.52
2023-04-16T21:46:31.946Z,12.98
2023-04-16T21:48:58.744Z,11.02
2023-04-16T21:51:28.909Z,10.73
2023-04-16T21:53:56.499Z,11.82
2023-04-16T21:56:23.732Z,11.07
2023-04-16T21:58:50.639Z,11.80
2023-04-16T22:01:17.483Z,10.63
2023-04-16T22:03:46.863Z,9.85
2023-04-16T22:06:14.118Z,10.95
2023-04-16T22:08:40.848Z,9.52
2023-04-16T22:11:07.519Z,11.13
2023-04-16T22:13:36.370Z,14.95
2023-04-16T22:16:03.411Z,13.45
2023-04-16T22:18:33.534Z,13.82
2023-04-16T22:21:00.661Z,13.38
2023-04-16T22:23:27.399Z,13.05
2023-04-16T22:25:55.519Z,12.43
2023-04-16T22:28:22.536Z,11.75
2023-04-16T22:30:49.410Z,11.10
2023-04-16T22:33:16.291Z,10.57
2023-04-16T22:35:43.045Z,12.73
2023-04-16T22:38:10.314Z,13.98
2023-04-16T22:40:37.052Z,12.05
2023-04-16T22:43:03.790Z,12.85
2023-04-16T22:45:30.530Z,13.45
2023-04-16T22:47:57.286Z,12.20
2023-04-16T22:50:24.080Z,12.57
2023-04-16T22:52:50.867Z,11.98
2023-04-16T22:55:17.536Z,12.27
2023-04-16T22:57:44.234Z,12.40
2023-04-16T23:00:15.759Z,13.32
2023-04-16T23:02:43.308Z,12.32
2023-04-16T23:05:10.683Z,13.88
2023-04-16T23:07:37.564Z,13.23
2023-04-16T23:10:04.603Z,13.27
2023-04-16T23:12:31.394Z,12.60
2023-04-16T23:14:58.248Z,12.48
2023-04-16T23:17:25.085Z,14.43
2023-04-16T23:19:52.063Z,12.70
2023-04-16T23:22:18.787Z,12.63
2023-04-16T23:24:45.807Z,12.60
2023-04-16T23:27:12.614Z,12.82
2023-04-16T23:29:39.366Z,10.40
2023-04-16T23:32:06.321Z,11.40
2023-04-16T23:34:33.014Z,12.15
2023-04-16T23:36:59.739Z,13.15
2023-04-16T23:39:27.132Z,13.30
2023-04-16T23:41:53.879Z,11.52
2023-04-16T23:44:20.639Z,11.77
2023-04-16T23:46:47.416Z,10.63
2023-04-16T23:49:14.346Z,9.85
2023-04-16T23:51:41.384Z,9.80
2023-04-16T23:54:08.112Z,9.32
2023-04-16T23:56:34.797Z,9.70
2023-04-16T23:59:01.565Z,11.55
